sensor_id;sensor_type;location;lat;lon;timestamp;P1;durP1;ratioP1;P2;durP2;ratioP2
37771;SDS011;23610;59.380;24.642;2023-06-05T00:03:00;4.32;;;0.60;;
37771;SDS011;23610;59.380;24.642;2023-06-05T00:08:02;5.50;;;0.80;;
37771;SDS011;23610;59.380;24.642;2023-06-05T00:13:05;6.32;;;0.60;;
37771;SDS011;23610;59.380;24.642;2023-06-05T00:18:08;1.67;;;0.60;;
37771;SDS011;23610;59.380;24.642;2023-06-05T00:23:10;1.17;;;0.57;;
37771;SDS011;23610;59.380;24.642;2023-06-05T00:28:14;1.00;;;0.47;;
37771;SDS011;23610;59.380;24.642;2023-06-05T00:33:17;0.90;;;0.63;;
37771;SDS011;23610;59.380;24.642;2023-06-05T00:38:20;0.60;;;0.50;;
37771;SDS011;23610;59.380;24.642;2023-06-05T00:43:22;0.35;;;0.30;;
37771;SDS011;23610;59.380;24.642;2023-06-05T00:48:25;0.30;;;0.30;;
37771;SDS011;23610;59.380;24.642;2023-06-05T00:53:28;2.15;;;0.43;;
37771;SDS011;23610;59.380;24.642;2023-06-05T00:58:35;3.10;;;0.60;;
37771;SDS011;23610;59.380;24.642;2023-06-05T01:03:37;0.43;;;0.38;;
37771;SDS011;23610;59.380;24.642;2023-06-05T01:08:41;0.30;;;0.30;;
37771;SDS011;23610;59.380;24.642;2023-06-05T01:13:46;0.70;;;0.60;;
37771;SDS011;23610;59.380;24.642;2023-06-05T01:19:02;0.60;;;0.30;;
37771;SDS011;23610;59.380;24.642;2023-06-05T01:24:06;0.47;;;0.47;;
37771;SDS011;23610;59.380;24.642;2023-06-05T01:29:10;0.75;;;0.47;;
37771;SDS011;23610;59.380;24.642;2023-06-05T01:34:15;0.32;;;0.32;;
37771;SDS011;23610;59.380;24.642;2023-06-05T01:39:21;1.02;;;0.35;;
37771;SDS011;23610;59.380;24.642;2023-06-05T01:44:26;2.08;;;0.95;;
37771;SDS011;23610;59.380;24.642;2023-06-05T01:49:30;16.85;;;6.50;;
37771;SDS011;23610;59.380;24.642;2023-06-05T01:54:33;42.22;;;15.75;;
37771;SDS011;23610;59.380;24.642;2023-06-05T01:59:35;100.85;;;29.30;;
37771;SDS011;23610;59.380;24.642;2023-06-05T02:04:38;254.85;;;72.93;;
37771;SDS011;23610;59.380;24.642;2023-06-05T02:09:41;153.10;;;49.13;;
37771;SDS011;23610;59.380;24.642;2023-06-05T02:14:44;77.22;;;29.10;;
37771;SDS011;23610;59.380;24.642;2023-06-05T02:19:47;35.92;;;17.35;;
37771;SDS011;23610;59.380;24.642;2023-06-05T02:24:50;28.90;;;14.77;;
37771;SDS011;23610;59.380;24.642;2023-06-05T02:29:54;28.43;;;12.70;;
37771;SDS011;23610;59.380;24.642;2023-06-05T02:34:58;25.42;;;13.80;;
37771;SDS011;23610;59.380;24.642;2023-06-05T02:40:01;19.15;;;8.23;;
37771;SDS011;23610;59.380;24.642;2023-06-05T02:45:04;20.63;;;8.02;;
37771;SDS011;23610;59.380;24.642;2023-06-05T02:50:09;19.38;;;9.30;;
37771;SDS011;23610;59.380;24.642;2023-06-05T02:55:16;16.83;;;8.60;;
37771;SDS011;23610;59.380;24.642;2023-06-05T03:00:20;19.33;;;6.18;;
37771;SDS011;23610;59.380;24.642;2023-06-05T03:05:27;12.48;;;4.97;;
37771;SDS011;23610;59.380;24.642;2023-06-05T03:10:36;12.40;;;4.43;;
37771;SDS011;23610;59.380;24.642;2023-06-05T03:15:40;8.55;;;4.68;;
37771;SDS011;23610;59.380;24.642;2023-06-05T03:20:48;11.25;;;3.55;;
37771;SDS011;23610;59.380;24.642;2023-06-05T03:25:56;12.75;;;3.30;;
37771;SDS011;23610;59.380;24.642;2023-06-05T03:30:59;6.47;;;2.67;;
37771;SDS011;23610;59.380;24.642;2023-06-05T03:36:08;7.30;;;1.85;;
37771;SDS011;23610;59.380;24.642;2023-06-05T03:41:11;5.03;;;2.35;;
37771;SDS011;23610;59.380;24.642;2023-06-05T03:46:17;4.88;;;2.55;;
37771;SDS011;23610;59.380;24.642;2023-06-05T03:51:23;5.50;;;1.00;;
37771;SDS011;23610;59.380;24.642;2023-06-05T03:56:32;4.80;;;1.13;;
37771;SDS011;23610;59.380;24.642;2023-06-05T04:01:44;0.93;;;0.68;;
37771;SDS011;23610;59.380;24.642;2023-06-05T04:06:48;0.55;;;0.50;;
37771;SDS011;23610;59.380;24.642;2023-06-05T04:11:52;5.35;;;0.73;;
37771;SDS011;23610;59.380;24.642;2023-06-05T04:16:55;0.43;;;0.43;;
37771;SDS011;23610;59.380;24.642;2023-06-05T04:21:59;5.60;;;1.35;;
37771;SDS011;23610;59.380;24.642;2023-06-05T04:27:05;6.88;;;0.65;;
37771;SDS011;23610;59.380;24.642;2023-06-05T04:32:10;1.20;;;0.60;;
37771;SDS011;23610;59.380;24.642;2023-06-05T04:37:12;2.90;;;0.65;;
37771;SDS011;23610;59.380;24.642;2023-06-05T04:42:15;1.88;;;0.57;;
37771;SDS011;23610;59.380;24.642;2023-06-05T04:47:21;0.88;;;0.50;;
37771;SDS011;23610;59.380;24.642;2023-06-05T04:52:25;0.60;;;0.50;;
37771;SDS011;23610;59.380;24.642;2023-06-05T04:57:28;0.90;;;0.68;;
37771;SDS011;23610;59.380;24.642;2023-06-05T05:02:34;3.17;;;0.73;;
37771;SDS011;23610;59.380;24.642;2023-06-05T05:07:41;2.00;;;0.60;;
37771;SDS011;23610;59.380;24.642;2023-06-05T05:12:45;1.73;;;0.70;;
37771;SDS011;23610;59.380;24.642;2023-06-05T05:17:49;3.23;;;0.93;;
37771;SDS011;23610;59.380;24.642;2023-06-05T05:22:54;1.55;;;1.13;;
37771;SDS011;23610;59.380;24.642;2023-06-05T05:27:59;2.15;;;0.82;;
37771;SDS011;23610;59.380;24.642;2023-06-05T05:33:01;2.08;;;0.60;;
37771;SDS011;23610;59.380;24.642;2023-06-05T05:38:05;2.72;;;0.65;;
37771;SDS011;23610;59.380;24.642;2023-06-05T05:43:08;4.75;;;0.65;;
37771;SDS011;23610;59.380;24.642;2023-06-05T05:48:11;0.85;;;0.50;;
37771;SDS011;23610;59.380;24.642;2023-06-05T05:53:13;1.25;;;0.95;;
37771;SDS011;23610;59.380;24.642;2023-06-05T05:58:16;1.73;;;0.60;;
37771;SDS011;23610;59.380;24.642;2023-06-05T06:03:21;2.40;;;1.17;;
37771;SDS011;23610;59.380;24.642;2023-06-05T06:08:24;1.65;;;0.90;;
37771;SDS011;23610;59.380;24.642;2023-06-05T06:13:29;2.63;;;1.03;;
37771;SDS011;23610;59.380;24.642;2023-06-05T06:23:38;1.42;;;0.50;;
37771;SDS011;23610;59.380;24.642;2023-06-05T06:28:41;1.88;;;0.47;;
37771;SDS011;23610;59.380;24.642;2023-06-05T06:39:43;1.75;;;0.50;;
37771;SDS011;23610;59.380;24.642;2023-06-05T06:44:46;3.05;;;0.88;;
37771;SDS011;23610;59.380;24.642;2023-06-05T06:49:49;3.35;;;0.85;;
37771;SDS011;23610;59.380;24.642;2023-06-05T06:54:52;3.13;;;0.88;;
37771;SDS011;23610;59.380;24.642;2023-06-05T06:59:56;7.07;;;0.90;;
37771;SDS011;23610;59.380;24.642;2023-06-05T07:05:00;1.65;;;0.88;;
37771;SDS011;23610;59.380;24.642;2023-06-05T07:10:07;2.92;;;0.82;;
37771;SDS011;23610;59.380;24.642;2023-06-05T07:15:11;0.98;;;0.65;;
37771;SDS011;23610;59.380;24.642;2023-06-05T07:20:14;5.38;;;1.63;;
37771;SDS011;23610;59.380;24.642;2023-06-05T07:25:17;1.45;;;1.10;;
37771;SDS011;23610;59.380;24.642;2023-06-05T07:30:22;7.03;;;1.13;;
37771;SDS011;23610;59.380;24.642;2023-06-05T07:35:25;5.38;;;1.05;;
37771;SDS011;23610;59.380;24.642;2023-06-05T07:40:27;2.05;;;0.95;;
37771;SDS011;23610;59.380;24.642;2023-06-05T07:45:30;4.57;;;1.42;;
37771;SDS011;23610;59.380;24.642;2023-06-05T07:50:34;1.48;;;1.00;;
37771;SDS011;23610;59.380;24.642;2023-06-05T07:55:36;5.07;;;1.33;;
37771;SDS011;23610;59.380;24.642;2023-06-05T08:00:39;3.58;;;1.27;;
37771;SDS011;23610;59.380;24.642;2023-06-05T08:05:54;2.20;;;1.23;;
37771;SDS011;23610;59.380;24.642;2023-06-05T08:10:56;1.08;;;0.85;;
37771;SDS011;23610;59.380;24.642;2023-06-05T08:15:59;2.38;;;1.02;;
37771;SDS011;23610;59.380;24.642;2023-06-05T08:21:03;1.73;;;1.23;;
37771;SDS011;23610;59.380;24.642;2023-06-05T08:26:08;2.78;;;1.55;;
37771;SDS011;23610;59.380;24.642;2023-06-05T08:31:14;7.53;;;1.60;;
37771;SDS011;23610;59.380;24.642;2023-06-05T08:36:17;2.60;;;1.10;;
37771;SDS011;23610;59.380;24.642;2023-06-05T08:41:19;1.77;;;1.25;;
37771;SDS011;23610;59.380;24.642;2023-06-05T08:46:22;2.28;;;1.30;;
37771;SDS011;23610;59.380;24.642;2023-06-05T08:51:32;5.00;;;1.10;;
37771;SDS011;23610;59.380;24.642;2023-06-05T08:56:35;1.88;;;1.17;;
37771;SDS011;23610;59.380;24.642;2023-06-05T09:01:38;2.83;;;1.00;;
37771;SDS011;23610;59.380;24.642;2023-06-05T09:06:44;1.55;;;1.02;;
37771;SDS011;23610;59.380;24.642;2023-06-05T09:12:03;1.45;;;0.88;;
37771;SDS011;23610;59.380;24.642;2023-06-05T09:17:11;3.13;;;0.90;;
37771;SDS011;23610;59.380;24.642;2023-06-05T09:22:15;1.75;;;1.17;;
37771;SDS011;23610;59.380;24.642;2023-06-05T09:27:32;2.95;;;1.25;;
37771;SDS011;23610;59.380;24.642;2023-06-05T09:32:37;5.03;;;1.90;;
37771;SDS011;23610;59.380;24.642;2023-06-05T09:37:40;1.02;;;0.90;;
37771;SDS011;23610;59.380;24.642;2023-06-05T09:42:48;1.65;;;0.93;;
37771;SDS011;23610;59.380;24.642;2023-06-05T09:47:54;1.85;;;1.00;;
37771;SDS011;23610;59.380;24.642;2023-06-05T09:53:16;1.27;;;1.00;;
37771;SDS011;23610;59.380;24.642;2023-06-05T09:58:24;1.70;;;1.20;;
37771;SDS011;23610;59.380;24.642;2023-06-05T10:03:27;0.50;;;0.50;;
37771;SDS011;23610;59.380;24.642;2023-06-05T10:08:30;2.92;;;1.00;;
37771;SDS011;23610;59.380;24.642;2023-06-05T10:13:33;1.30;;;1.15;;
37771;SDS011;23610;59.380;24.642;2023-06-05T10:18:36;5.13;;;0.88;;
37771;SDS011;23610;59.380;24.642;2023-06-05T10:23:39;1.77;;;1.00;;
37771;SDS011;23610;59.380;24.642;2023-06-05T10:28:49;4.50;;;0.95;;
37771;SDS011;23610;59.380;24.642;2023-06-05T10:34:03;1.83;;;0.95;;
37771;SDS011;23610;59.380;24.642;2023-06-05T10:39:29;2.47;;;0.88;;
37771;SDS011;23610;59.380;24.642;2023-06-05T10:50:10;1.00;;;0.80;;
37771;SDS011;23610;59.380;24.642;2023-06-05T10:55:19;1.38;;;1.13;;
37771;SDS011;23610;59.380;24.642;2023-06-05T11:00:27;1.38;;;0.82;;
37771;SDS011;23610;59.380;24.642;2023-06-05T11:10:35;1.58;;;0.85;;
37771;SDS011;23610;59.380;24.642;2023-06-05T11:15:40;1.58;;;0.80;;
37771;SDS011;23610;59.380;24.642;2023-06-05T11:25:49;0.85;;;0.77;;
37771;SDS011;23610;59.380;24.642;2023-06-05T11:30:52;3.33;;;1.00;;
37771;SDS011;23610;59.380;24.642;2023-06-05T11:35:59;0.90;;;0.80;;
37771;SDS011;23610;59.380;24.642;2023-06-05T11:41:05;0.80;;;0.80;;
37771;SDS011;23610;59.380;24.642;2023-06-05T11:51:13;4.45;;;0.68;;
37771;SDS011;23610;59.380;24.642;2023-06-05T11:56:16;1.10;;;1.00;;
37771;SDS011;23610;59.380;24.642;2023-06-05T12:01:19;3.08;;;0.80;;
37771;SDS011;23610;59.380;24.642;2023-06-05T12:06:39;0.90;;;0.85;;
37771;SDS011;23610;59.380;24.642;2023-06-05T12:11:46;3.67;;;1.80;;
37771;SDS011;23610;59.380;24.642;2023-06-05T12:16:49;1.08;;;1.02;;
37771;SDS011;23610;59.380;24.642;2023-06-05T12:22:00;8.15;;;1.52;;
37771;SDS011;23610;59.380;24.642;2023-06-05T12:27:06;3.30;;;1.17;;
37771;SDS011;23610;59.380;24.642;2023-06-05T12:32:22;2.20;;;1.02;;
37771;SDS011;23610;59.380;24.642;2023-06-05T12:37:28;2.63;;;1.40;;
37771;SDS011;23610;59.380;24.642;2023-06-05T12:42:40;3.88;;;1.13;;
37771;SDS011;23610;59.380;24.642;2023-06-05T12:47:47;1.70;;;1.05;;
37771;SDS011;23610;59.380;24.642;2023-06-05T12:52:49;1.10;;;1.00;;
37771;SDS011;23610;59.380;24.642;2023-06-05T12:57:52;6.25;;;1.00;;
37771;SDS011;23610;59.380;24.642;2023-06-05T13:02:55;8.68;;;1.13;;
37771;SDS011;23610;59.380;24.642;2023-06-05T13:07:58;1.20;;;1.05;;
37771;SDS011;23610;59.380;24.642;2023-06-05T13:13:02;3.00;;;1.20;;
37771;SDS011;23610;59.380;24.642;2023-06-05T13:18:05;1.50;;;0.90;;
37771;SDS011;23610;59.380;24.642;2023-06-05T13:23:09;1.85;;;0.98;;
37771;SDS011;23610;59.380;24.642;2023-06-05T13:28:13;3.90;;;0.90;;
37771;SDS011;23610;59.380;24.642;2023-06-05T13:33:18;2.30;;;0.90;;
37771;SDS011;23610;59.380;24.642;2023-06-05T13:38:21;0.93;;;0.60;;
37771;SDS011;23610;59.380;24.642;2023-06-05T13:43:25;1.58;;;0.85;;
37771;SDS011;23610;59.380;24.642;2023-06-05T13:48:27;8.63;;;1.60;;
37771;SDS011;23610;59.380;24.642;2023-06-05T13:53:31;0.90;;;0.80;;
37771;SDS011;23610;59.380;24.642;2023-06-05T13:58:38;1.67;;;1.17;;
37771;SDS011;23610;59.380;24.642;2023-06-05T14:03:40;1.90;;;1.10;;
37771;SDS011;23610;59.380;24.642;2023-06-05T14:08:44;7.30;;;0.93;;
37771;SDS011;23610;59.380;24.642;2023-06-05T14:13:47;0.80;;;0.73;;
37771;SDS011;23610;59.380;24.642;2023-06-05T14:18:50;2.65;;;0.75;;
37771;SDS011;23610;59.380;24.642;2023-06-05T14:23:53;0.98;;;0.70;;
37771;SDS011;23610;59.380;24.642;2023-06-05T14:28:55;3.92;;;0.93;;
37771;SDS011;23610;59.380;24.642;2023-06-05T14:33:58;2.05;;;0.80;;
37771;SDS011;23610;59.380;24.642;2023-06-05T14:39:01;2.35;;;0.80;;
37771;SDS011;23610;59.380;24.642;2023-06-05T14:44:05;0.63;;;0.63;;
37771;SDS011;23610;59.380;24.642;2023-06-05T14:49:23;4.18;;;1.20;;
37771;SDS011;23610;59.380;24.642;2023-06-05T14:54:26;4.38;;;0.90;;
37771;SDS011;23610;59.380;24.642;2023-06-05T14:59:29;3.00;;;0.90;;
37771;SDS011;23610;59.380;24.642;2023-06-05T15:04:31;3.10;;;0.60;;
37771;SDS011;23610;59.380;24.642;2023-06-05T15:09:35;1.23;;;1.05;;
37771;SDS011;23610;59.380;24.642;2023-06-05T15:14:38;2.67;;;0.85;;
37771;SDS011;23610;59.380;24.642;2023-06-05T15:19:40;4.60;;;1.00;;
37771;SDS011;23610;59.380;24.642;2023-06-05T15:24:44;1.25;;;0.90;;
37771;SDS011;23610;59.380;24.642;2023-06-05T15:29:49;2.45;;;1.60;;
37771;SDS011;23610;59.380;24.642;2023-06-05T15:34:52;1.30;;;0.95;;
37771;SDS011;23610;59.380;24.642;2023-06-05T15:40:08;1.10;;;0.88;;
37771;SDS011;23610;59.380;24.642;2023-06-05T15:45:13;3.55;;;0.95;;
37771;SDS011;23610;59.380;24.642;2023-06-05T15:50:19;5.22;;;2.58;;
37771;SDS011;23610;59.380;24.642;2023-06-05T15:55:21;9.73;;;4.28;;
37771;SDS011;23610;59.380;24.642;2023-06-05T16:00:24;8.70;;;4.72;;
37771;SDS011;23610;59.380;24.642;2023-06-05T16:05:28;3.95;;;1.77;;
37771;SDS011;23610;59.380;24.642;2023-06-05T16:10:30;5.65;;;2.75;;
37771;SDS011;23610;59.380;24.642;2023-06-05T16:15:33;33.42;;;13.35;;
37771;SDS011;23610;59.380;24.642;2023-06-05T16:20:36;8.13;;;4.95;;
37771;SDS011;23610;59.380;24.642;2023-06-05T16:25:38;5.28;;;3.60;;
37771;SDS011;23610;59.380;24.642;2023-06-05T16:30:41;3.13;;;2.65;;
37771;SDS011;23610;59.380;24.642;2023-06-05T16:35:44;6.95;;;5.43;;
37771;SDS011;23610;59.380;24.642;2023-06-05T16:40:46;43.03;;;29.08;;
37771;SDS011;23610;59.380;24.642;2023-06-05T16:45:51;11.13;;;9.15;;
37771;SDS011;23610;59.380;24.642;2023-06-05T16:50:57;10.93;;;3.45;;
37771;SDS011;23610;59.380;24.642;2023-06-05T16:56:00;6.82;;;5.05;;
37771;SDS011;23610;59.380;24.642;2023-06-05T17:01:04;4.72;;;2.03;;
37771;SDS011;23610;59.380;24.642;2023-06-05T17:06:07;2.75;;;1.00;;
37771;SDS011;23610;59.380;24.642;2023-06-05T17:11:10;2.60;;;2.03;;
37771;SDS011;23610;59.380;24.642;2023-06-05T17:16:13;5.80;;;3.83;;
37771;SDS011;23610;59.380;24.642;2023-06-05T17:21:16;1.70;;;1.27;;
37771;SDS011;23610;59.380;24.642;2023-06-05T17:26:18;2.17;;;1.50;;
37771;SDS011;23610;59.380;24.642;2023-06-05T17:31:24;3.35;;;2.90;;
37771;SDS011;23610;59.380;24.642;2023-06-05T17:36:30;3.03;;;1.25;;
37771;SDS011;23610;59.380;24.642;2023-06-05T17:41:33;4.90;;;1.98;;
37771;SDS011;23610;59.380;24.642;2023-06-05T17:46:36;3.13;;;1.40;;
37771;SDS011;23610;59.380;24.642;2023-06-05T17:51:39;5.65;;;0.80;;
37771;SDS011;23610;59.380;24.642;2023-06-05T17:56:43;1.40;;;1.17;;
37771;SDS011;23610;59.380;24.642;2023-06-05T18:01:45;3.70;;;1.00;;
37771;SDS011;23610;59.380;24.642;2023-06-05T18:06:48;3.50;;;1.17;;
37771;SDS011;23610;59.380;24.642;2023-06-05T18:11:51;6.07;;;1.20;;
37771;SDS011;23610;59.380;24.642;2023-06-05T18:16:54;2.45;;;1.10;;
37771;SDS011;23610;59.380;24.642;2023-06-05T18:22:17;1.75;;;0.80;;
37771;SDS011;23610;59.380;24.642;2023-06-05T18:27:20;2.97;;;1.60;;
37771;SDS011;23610;59.380;24.642;2023-06-05T18:32:22;6.13;;;1.42;;
37771;SDS011;23610;59.380;24.642;2023-06-05T18:37:26;2.17;;;1.30;;
37771;SDS011;23610;59.380;24.642;2023-06-05T18:42:28;2.22;;;1.13;;
37771;SDS011;23610;59.380;24.642;2023-06-05T18:47:31;2.58;;;1.58;;
37771;SDS011;23610;59.380;24.642;2023-06-05T18:52:34;4.28;;;1.35;;
37771;SDS011;23610;59.380;24.642;2023-06-05T18:57:37;5.82;;;2.13;;
37771;SDS011;23610;59.380;24.642;2023-06-05T19:02:40;3.15;;;1.65;;
37771;SDS011;23610;59.380;24.642;2023-06-05T19:07:44;2.38;;;1.92;;
37771;SDS011;23610;59.380;24.642;2023-06-05T19:12:46;6.28;;;2.38;;
37771;SDS011;23610;59.380;24.642;2023-06-05T19:17:49;4.75;;;1.73;;
37771;SDS011;23610;59.380;24.642;2023-06-05T19:22:52;3.67;;;1.65;;
37771;SDS011;23610;59.380;24.642;2023-06-05T19:27:55;3.60;;;1.38;;
37771;SDS011;23610;59.380;24.642;2023-06-05T19:32:59;2.88;;;1.10;;
37771;SDS011;23610;59.380;24.642;2023-06-05T19:38:02;7.00;;;1.40;;
37771;SDS011;23610;59.380;24.642;2023-06-05T19:43:06;1.20;;;1.05;;
37771;SDS011;23610;59.380;24.642;2023-06-05T19:48:09;4.50;;;1.58;;
37771;SDS011;23610;59.380;24.642;2023-06-05T19:53:12;5.22;;;1.20;;
37771;SDS011;23610;59.380;24.642;2023-06-05T19:58:16;6.95;;;1.95;;
37771;SDS011;23610;59.380;24.642;2023-06-05T20:03:20;1.25;;;1.10;;
37771;SDS011;23610;59.380;24.642;2023-06-05T20:08:22;1.98;;;1.40;;
37771;SDS011;23610;59.380;24.642;2023-06-05T20:13:25;3.78;;;1.00;;
37771;SDS011;23610;59.380;24.642;2023-06-05T20:18:28;2.25;;;1.60;;
37771;SDS011;23610;59.380;24.642;2023-06-05T20:23:35;3.88;;;1.13;;
37771;SDS011;23610;59.380;24.642;2023-06-05T20:28:39;2.85;;;1.90;;
37771;SDS011;23610;59.380;24.642;2023-06-05T20:33:42;1.52;;;1.08;;
37771;SDS011;23610;59.380;24.642;2023-06-05T20:38:45;2.58;;;0.88;;
37771;SDS011;23610;59.380;24.642;2023-06-05T20:43:50;1.85;;;1.10;;
37771;SDS011;23610;59.380;24.642;2023-06-05T20:48:53;3.30;;;0.95;;
37771;SDS011;23610;59.380;24.642;2023-06-05T20:54:02;4.15;;;1.00;;
37771;SDS011;23610;59.380;24.642;2023-06-05T20:59:05;3.10;;;0.75;;
37771;SDS011;23610;59.380;24.642;2023-06-05T21:04:08;2.92;;;1.42;;
37771;SDS011;23610;59.380;24.642;2023-06-05T21:09:10;2.38;;;1.10;;
37771;SDS011;23610;59.380;24.642;2023-06-05T21:14:15;1.73;;;1.33;;
37771;SDS011;23610;59.380;24.642;2023-06-05T21:19:17;1.02;;;0.68;;
37771;SDS011;23610;59.380;24.642;2023-06-05T21:24:20;1.52;;;1.15;;
37771;SDS011;23610;59.380;24.642;2023-06-05T21:29:22;2.10;;;0.88;;
37771;SDS011;23610;59.380;24.642;2023-06-05T21:34:28;2.80;;;1.13;;
37771;SDS011;23610;59.380;24.642;2023-06-05T21:39:31;2.28;;;1.40;;
37771;SDS011;23610;59.380;24.642;2023-06-05T21:44:33;2.33;;;1.65;;
37771;SDS011;23610;59.380;24.642;2023-06-05T21:49:37;1.67;;;1.10;;
37771;SDS011;23610;59.380;24.642;2023-06-05T21:54:40;4.82;;;1.05;;
37771;SDS011;23610;59.380;24.642;2023-06-05T21:59:43;4.40;;;1.15;;
37771;SDS011;23610;59.380;24.642;2023-06-05T22:04:46;4.85;;;1.00;;
37771;SDS011;23610;59.380;24.642;2023-06-05T22:09:49;1.77;;;1.02;;
37771;SDS011;23610;59.380;24.642;2023-06-05T22:14:52;3.05;;;1.50;;
37771;SDS011;23610;59.380;24.642;2023-06-05T22:19:55;3.03;;;1.20;;
37771;SDS011;23610;59.380;24.642;2023-06-05T22:24:59;3.25;;;1.20;;
37771;SDS011;23610;59.380;24.642;2023-06-05T22:30:01;4.97;;;1.15;;
37771;SDS011;23610;59.380;24.642;2023-06-05T22:35:06;9.07;;;1.50;;
37771;SDS011;23610;59.380;24.642;2023-06-05T22:40:09;2.08;;;1.33;;
37771;SDS011;23610;59.380;24.642;2023-06-05T22:45:13;4.15;;;1.13;;
37771;SDS011;23610;59.380;24.642;2023-06-05T22:50:15;3.17;;;1.27;;
37771;SDS011;23610;59.380;24.642;2023-06-05T22:55:18;3.92;;;0.98;;
37771;SDS011;23610;59.380;24.642;2023-06-05T23:00:21;3.05;;;1.23;;
37771;SDS011;23610;59.380;24.642;2023-06-05T23:05:23;2.45;;;1.10;;
37771;SDS011;23610;59.380;24.642;2023-06-05T23:10:26;4.43;;;1.50;;
37771;SDS011;23610;59.380;24.642;2023-06-05T23:15:29;2.35;;;1.17;;
37771;SDS011;23610;59.380;24.642;2023-06-05T23:20:34;6.20;;;1.43;;
37771;SDS011;23610;59.380;24.642;2023-06-05T23:30:41;4.55;;;1.10;;
37771;SDS011;23610;59.380;24.642;2023-06-05T23:35:44;3.35;;;1.35;;
37771;SDS011;23610;59.380;24.642;2023-06-05T23:40:47;4.57;;;1.30;;
37771;SDS011;23610;59.380;24.642;2023-06-05T23:45:51;4.03;;;1.35;;
37771;SDS011;23610;59.380;24.642;2023-06-05T23:50:54;3.25;;;1.50;;
37771;SDS011;23610;59.380;24.642;2023-06-05T23:55:57;6.50;;;1.33;;
